createdAt,value
2023-04-28T00:03:34.381Z,7.80
2023-04-28T00:08:37.846Z,7.70
2023-04-28T00:13:41.188Z,7.30
2023-04-28T00:18:44.352Z,7.50
2023-04-28T00:23:47.034Z,7.70
2023-04-28T00:28:49.984Z,8.90
2023-04-28T00:33:52.919Z,7.80
2023-04-28T00:38:55.830Z,6.90
2023-04-28T00:43:58.531Z,6.90
2023-04-28T00:49:01.880Z,5.10
2023-04-28T00:54:06.263Z,6.40
2023-04-28T00:59:09.131Z,5.50
2023-04-28T01:04:12.071Z,5.80
2023-04-28T01:09:15.505Z,5.60
2023-04-28T01:14:18.407Z,6.30
2023-04-28T01:19:23.276Z,6.00
2023-04-28T01:24:26.100Z,5.20
2023-04-28T01:29:28.873Z,7.00
2023-04-28T01:34:31.584Z,5.90
2023-04-28T01:39:35.156Z,5.90
2023-04-28T01:44:37.842Z,5.80
2023-04-28T01:49:40.668Z,5.70
2023-04-28T01:54:43.422Z,6.40
2023-04-28T01:59:46.574Z,5.70
2023-04-28T02:04:49.319Z,5.30
2023-04-28T02:09:52.038Z,6.40
2023-04-28T02:14:54.993Z,5.20
2023-04-28T02:19:57.855Z,5.50
2023-04-28T02:25:00.582Z,5.50
2023-04-28T02:30:07.583Z,4.90
2023-04-28T02:35:10.639Z,7.10
2023-04-28T02:40:13.475Z,6.10
2023-04-28T02:45:16.361Z,6.50
2023-04-28T02:50:19.271Z,6.10
2023-04-28T02:55:24.378Z,6.50
2023-04-28T03:00:27.184Z,5.50
2023-04-28T03:05:30.088Z,4.90
2023-04-28T03:10:33.090Z,5.60
2023-04-28T03:15:35.820Z,5.50
2023-04-28T03:20:38.516Z,5.60
2023-04-28T03:25:41.241Z,5.60
2023-04-28T03:30:43.981Z,6.50
2023-04-28T03:35:46.794Z,8.70
2023-04-28T03:40:49.549Z,6.90
2023-04-28T03:45:52.324Z,8.20
2023-04-28T03:50:55.078Z,6.40
2023-04-28T03:55:57.917Z,5.70
2023-04-28T04:01:01.101Z,6.20
2023-04-28T04:06:04.207Z,6.20
2023-04-28T04:11:06.903Z,5.80
2023-04-28T04:16:09.753Z,5.90
2023-04-28T04:21:12.576Z,6.60
2023-04-28T04:26:15.652Z,5.20
2023-04-28T04:31:19.867Z,6.50
2023-04-28T04:36:22.713Z,9.70
2023-04-28T04:41:28.615Z,10.40
2023-04-28T04:46:32.006Z,10.50
2023-04-28T04:51:34.874Z,10.70
2023-04-28T04:56:37.711Z,7.40
2023-04-28T05:01:40.875Z,6.70
2023-04-28T05:06:44.150Z,6.20
2023-04-28T05:11:46.902Z,5.90
2023-04-28T05:16:49.819Z,6.30
2023-04-28T05:21:54.797Z,6.50
2023-04-28T05:26:59.634Z,8.10
2023-04-28T05:32:03.058Z,7.00
2023-04-28T05:37:08.553Z,6.20
2023-04-28T05:42:12.045Z,7.40
2023-04-28T05:47:14.726Z,6.60
2023-04-28T05:52:17.521Z,8.40
2023-04-28T05:57:22.554Z,7.70
2023-04-28T06:02:27.903Z,9.30
2023-04-28T06:07:31.060Z,8.40
2023-04-28T06:12:33.907Z,9.60
2023-04-28T06:17:37.689Z,9.80
2023-04-28T06:22:41.619Z,9.60
2023-04-28T06:27:44.500Z,7.50
2023-04-28T06:32:47.602Z,8.80
2023-04-28T06:37:50.515Z,6.80
2023-04-28T06:42:53.875Z,5.80
2023-04-28T06:47:56.995Z,7.90
2023-04-28T06:52:59.822Z,7.50
2023-04-28T06:58:02.645Z,6.20
2023-04-28T07:03:05.676Z,4.90
2023-04-28T07:08:08.671Z,4.10
2023-04-28T07:13:11.684Z,4.00
2023-04-28T07:18:15.070Z,3.60
2023-04-28T07:23:18.038Z,4.30
2023-04-28T07:28:20.967Z,5.10
2023-04-28T07:33:24.408Z,3.60
2023-04-28T07:38:27.370Z,4.50
2023-04-28T07:43:30.606Z,3.50
2023-04-28T07:48:34.395Z,2.90
2023-04-28T07:53:37.452Z,3.30
2023-04-28T07:58:40.530Z,4.00
2023-04-28T08:03:43.569Z,4.10
2023-04-28T08:08:47.242Z,3.70
2023-04-28T08:13:50.075Z,3.30
2023-04-28T08:18:56.647Z,3.30
2023-04-28T08:24:01.883Z,2.80
2023-04-28T08:34:40.213Z,3.20
2023-04-28T08:39:44.127Z,2.80
2023-04-28T08:44:49.415Z,3.30
2023-04-28T08:49:55.905Z,6.20
2023-04-28T08:55:03.705Z,19.80
2023-04-28T09:00:08.252Z,3.30
2023-04-28T09:05:13.967Z,2.70
2023-04-28T09:10:23.397Z,2.50
2023-04-28T09:15:42.887Z,2.00
2023-04-28T09:20:47.530Z,2.20
2023-04-28T09:26:00.462Z,2.40
2023-04-28T09:31:04.626Z,2.20
2023-04-28T09:36:07.532Z,2.90
2023-04-28T09:41:10.391Z,2.80
2023-04-28T09:46:29.793Z,2.30
2023-04-28T09:51:32.876Z,2.20
2023-04-28T09:56:41.483Z,1.80
2023-04-28T10:06:48.657Z,2.30
2023-04-28T10:11:53.980Z,2.40
2023-04-28T10:16:59.097Z,2.60
2023-04-28T10:22:24.241Z,2.50
2023-04-28T10:27:31.758Z,2.70
2023-04-28T10:32:34.894Z,2.60
2023-04-28T10:38:05.767Z,1.90
2023-04-28T10:43:13.606Z,2.20
2023-04-28T10:48:16.709Z,2.10
2023-04-28T10:53:19.944Z,2.20
2023-04-28T10:58:28.650Z,2.40
2023-04-28T11:03:50.264Z,2.20
2023-04-28T11:08:58.877Z,2.60
2023-04-28T11:14:19.367Z,2.10
2023-04-28T11:19:30.774Z,1.90
2023-04-28T11:24:34.875Z,2.20
2023-04-28T11:29:42.855Z,2.10
2023-04-28T11:34:57.054Z,2.30
2023-04-28T11:40:12.513Z,2.50
2023-04-28T11:45:21.265Z,2.40
2023-04-28T11:50:37.755Z,2.40
2023-04-28T11:55:41.185Z,2.20
2023-04-28T12:00:48.474Z,2.40
2023-04-28T12:05:51.317Z,2.30
2023-04-28T12:11:14.052Z,2.50
2023-04-28T12:16:42.319Z,2.30
2023-04-28T12:22:01.317Z,2.30
2023-04-28T12:27:25.376Z,2.60
2023-04-28T12:32:45.456Z,2.50
2023-04-28T12:37:48.499Z,2.70
2023-04-28T12:48:43.849Z,2.90
2023-04-28T12:53:46.639Z,3.30
2023-04-28T12:58:50.023Z,3.10
2023-04-28T13:03:53.788Z,2.30
2023-04-28T13:08:57.034Z,2.70
2023-04-28T13:14:00.155Z,2.70
2023-04-28T13:19:43.370Z,2.70
2023-04-28T13:25:00.620Z,2.30
2023-04-28T13:30:05.602Z,2.60
2023-04-28T13:35:09.821Z,2.50
2023-04-28T13:40:12.821Z,2.60
2023-04-28T13:45:17.632Z,2.80
2023-04-28T13:50:20.652Z,2.70
2023-04-28T13:55:27.804Z,2.60
2023-04-28T14:00:32.610Z,2.80
2023-04-28T14:05:48.397Z,2.70
2023-04-28T14:10:53.086Z,2.80
2023-04-28T14:15:59.468Z,2.80
2023-04-28T14:21:04.088Z,3.00
2023-04-28T14:26:07.000Z,3.50
2023-04-28T14:31:10.197Z,3.70
2023-04-28T14:36:13.074Z,3.10
2023-04-28T14:41:15.931Z,3.00
2023-04-28T14:46:22.884Z,2.90
2023-04-28T14:51:26.233Z,3.20
2023-04-28T14:56:33.902Z,3.30
2023-04-28T15:01:39.767Z,3.10
2023-04-28T15:06:42.609Z,2.70
2023-04-28T15:11:45.646Z,2.80
2023-04-28T15:16:48.667Z,2.90
2023-04-28T15:21:51.562Z,3.20
2023-04-28T15:26:54.513Z,3.00
2023-04-28T15:31:57.276Z,2.60
2023-04-28T15:37:00.056Z,3.10
2023-04-28T15:42:05.065Z,3.50
2023-04-28T15:47:07.803Z,3.30
2023-04-28T15:52:10.629Z,3.10
2023-04-28T15:57:13.720Z,3.20
2023-04-28T16:02:16.949Z,3.20
2023-04-28T16:07:20.190Z,3.80
2023-04-28T16:12:22.880Z,3.00
2023-04-28T16:17:26.188Z,3.20
2023-04-28T16:22:29.860Z,3.10
2023-04-28T16:27:32.993Z,3.30
2023-04-28T16:32:42.933Z,3.40
2023-04-28T16:37:49.349Z,3.50
2023-04-28T16:42:52.326Z,3.30
2023-04-28T16:47:55.208Z,3.30
2023-04-28T16:52:57.917Z,3.10
2023-04-28T16:58:00.649Z,3.30
2023-04-28T17:03:03.543Z,3.40
2023-04-28T17:08:06.439Z,3.10
2023-04-28T17:13:10.198Z,3.60
2023-04-28T17:18:14.109Z,2.60
2023-04-28T17:23:19.487Z,3.40
2023-04-28T17:28:25.580Z,4.50
2023-04-28T17:33:28.280Z,5.70
2023-04-28T17:38:31.264Z,5.30
2023-04-28T17:43:34.494Z,4.80
2023-04-28T17:48:37.833Z,7.00
2023-04-28T17:53:48.695Z,12.70
2023-04-28T17:58:51.814Z,37.30
2023-04-28T18:03:56.020Z,27.00
2023-04-28T18:08:58.735Z,28.50
2023-04-28T18:14:01.740Z,19.40
2023-04-28T18:19:04.447Z,16.40
2023-04-28T18:24:07.241Z,17.20
2023-04-28T18:29:09.967Z,15.80
2023-04-28T18:34:12.669Z,13.90
2023-04-28T18:39:15.413Z,23.30
2023-04-28T18:44:19.188Z,19.50
2023-04-28T18:49:24.769Z,15.40
2023-04-28T18:54:29.382Z,14.30
2023-04-28T18:59:33.747Z,13.20
2023-04-28T19:04:39.234Z,13.10
2023-04-28T19:09:42.635Z,13.00
2023-04-28T19:14:45.404Z,13.60
2023-04-28T19:19:48.280Z,14.80
2023-04-28T19:24:51.143Z,18.00
2023-04-28T19:29:54.344Z,18.70
2023-04-28T19:34:57.129Z,18.80
2023-04-28T19:40:00.264Z,15.80
2023-04-28T19:45:04.224Z,15.50
2023-04-28T19:50:08.909Z,14.60
2023-04-28T19:55:18.345Z,14.80
2023-04-28T20:00:21.844Z,15.10
2023-04-28T20:05:24.684Z,15.60
2023-04-28T20:10:27.380Z,16.30
2023-04-28T20:15:30.080Z,15.20
2023-04-28T20:20:32.780Z,16.20
2023-04-28T20:25:37.341Z,18.50
2023-04-28T20:30:42.003Z,29.60
2023-04-28T20:35:44.951Z,25.80
2023-04-28T20:40:47.803Z,16.20
2023-04-28T20:45:51.076Z,12.50
2023-04-28T20:50:55.338Z,12.50
2023-04-28T20:55:58.434Z,10.50
2023-04-28T21:01:01.847Z,11.20
2023-04-28T21:06:04.581Z,13.50
2023-04-28T21:11:14.766Z,12.90
2023-04-28T21:16:21.164Z,11.50
2023-04-28T21:21:24.512Z,10.40
2023-04-28T21:26:27.199Z,10.50
2023-04-28T21:31:30.809Z,12.50
2023-04-28T21:36:34.485Z,10.80
2023-04-28T21:41:37.471Z,12.10
2023-04-28T21:46:40.151Z,10.50
2023-04-28T21:51:42.987Z,9.90
2023-04-28T21:56:46.613Z,8.90
2023-04-28T22:01:49.829Z,7.60
2023-04-28T22:06:52.765Z,8.00
2023-04-28T22:11:55.455Z,8.00
2023-04-28T22:16:58.946Z,10.40
2023-04-28T22:22:01.705Z,10.30
2023-04-28T22:27:04.519Z,10.20
2023-04-28T22:32:09.843Z,9.80
2023-04-28T22:37:12.630Z,11.90
2023-04-28T22:42:15.378Z,11.30
2023-04-28T22:47:18.342Z,14.40
2023-04-28T22:52:22.064Z,16.70
2023-04-28T22:57:25.511Z,17.70
2023-04-28T23:02:29.292Z,12.80
2023-04-28T23:07:32.368Z,8.50
2023-04-28T23:12:35.081Z,7.40
2023-04-28T23:17:37.857Z,6.00
2023-04-28T23:22:40.649Z,5.10
2023-04-28T23:27:43.768Z,5.00
2023-04-28T23:32:46.508Z,5.20
2023-04-28T23:37:49.457Z,6.20
2023-04-28T23:42:52.199Z,5.60
2023-04-28T23:47:54.906Z,5.20
2023-04-28T23:52:57.698Z,5.50
2023-04-28T23:58:00.568Z,5.40
